F/V Argentario — FGPE — position and weather

sailwx.info

Track history (hours):
 
Tides and Currents Weather Stations Pressure Air Temp Water Temp Dewpoint Dewpoint Depression Visibility Wind Speed Wind Dir Waves Ship Positions

F/V Argentario

Last reported at 2014-Nov-19 16:33 UTC. Time now 2014-Nov-23 21:22 UTC.
Position N 46°30' W 001°47'.

Length 22 m; draft 3.4 m.

Type: Fishing. MMSI: 228975000.

Date/timePositionNaut miles runAvg speedWind from/ knotsBaromVisibWave heightAir tempDewpointWater temp
2014-Nov-19 16:33N 46°30' W 001°47'0 0.0
2014-Nov-19 15:33N 46°30' W 001°47'0 0.0
2014-Nov-19 14:33N 46°30' W 001°47'0 0.1
2014-Nov-19 13:33N 46°30' W 001°47'0 0.0
2014-Nov-19 12:33N 46°30' W 001°47'0 0.1
2014-Nov-19 11:33N 46°30' W 001°48'3 0.4
2014-Nov-19 03:31N 46°28' W 001°51'6 5.8
2014-Nov-19 02:33N 46°33' W 001°54'7 7.0
2014-Nov-19 01:33N 46°40' W 001°57'1 0.9
2014-Nov-19 00:33N 46°41' W 001°56'0 0.0
2014-Nov-18 23:33N 46°41' W 001°56'0 0.0
2014-Nov-18 22:33N 46°41' W 001°56'0 0.0
2014-Nov-18 21:33N 46°41' W 001°56'0 0.0
2014-Nov-18 20:33N 46°41' W 001°56'0 0.0
2014-Nov-18 19:33N 46°41' W 001°56'0 0.0
2014-Nov-18 18:33N 46°41' W 001°56'0 0.0
2014-Nov-18 17:33N 46°41' W 001°56'0 0.0
2014-Nov-18 16:33N 46°41' W 001°56'0 0.0
2014-Nov-18 15:33N 46°41' W 001°56'0 0.0
2014-Nov-18 14:33N 46°41' W 001°56'0 0.0
2014-Nov-18 13:33N 46°41' W 001°56'0 0.0
2014-Nov-18 12:33N 46°41' W 001°56'0 0.0
2014-Nov-18 11:33N 46°41' W 001°56'0 0.0
2014-Nov-18 10:33N 46°41' W 001°56'0 0.0
2014-Nov-18 09:33N 46°41' W 001°56'0 0.0
2014-Nov-18 08:33N 46°41' W 001°56'0 0.0
2014-Nov-18 07:33N 46°41' W 001°56'0 0.0
2014-Nov-18 06:33N 46°41' W 001°56'0 0.0
2014-Nov-18 05:33N 46°41' W 001°56'0 0.0
2014-Nov-18 04:33N 46°41' W 001°56'0 0.0
2014-Nov-18 03:33N 46°41' W 001°56'0 0.0
2014-Nov-18 02:33N 46°41' W 001°56'0 0.0
2014-Nov-18 01:33N 46°41' W 001°56'0 0.0
2014-Nov-18 00:33N 46°41' W 001°56'0 0.0
2014-Nov-17 23:33N 46°41' W 001°56'0 0.0
2014-Nov-17 22:33N 46°41' W 001°56'0 0.0
2014-Nov-17 21:33N 46°41' W 001°56'0 0.0
2014-Nov-17 20:33N 46°41' W 001°56'0 0.0
2014-Nov-17 19:33N 46°41' W 001°56'0 0.0
2014-Nov-17 18:33N 46°41' W 001°56'0 0.0
2014-Nov-17 17:33N 46°41' W 001°56'0 0.0
2014-Nov-17 16:33N 46°41' W 001°56'0 0.0
2014-Nov-17 15:33N 46°41' W 001°56'0 0.0
2014-Nov-17 14:33N 46°41' W 001°56'0 0.0
2014-Nov-17 13:33N 46°41' W 001°56'0 0.0
2014-Nov-17 12:33N 46°41' W 001°56'0 0.0
2014-Nov-17 11:33N 46°41' W 001°56'0 0.0
2014-Nov-17 10:33N 46°41' W 001°56'0 0.0
2014-Nov-17 09:33N 46°41' W 001°56'0 0.0
2014-Nov-17 08:33N 46°41' W 001°56'0 0.0
2014-Nov-17 07:33N 46°41' W 001°56'0 0.0
2014-Nov-17 06:33N 46°41' W 001°56'0 0.0
2014-Nov-17 05:33N 46°41' W 001°56'0 0.0
2014-Nov-17 04:33N 46°41' W 001°56'0 0.0
2014-Nov-17 03:33N 46°41' W 001°56'0 0.0
2014-Nov-17 02:33N 46°41' W 001°56'0 0.0
2014-Nov-17 01:33N 46°41' W 001°56'0 0.0
2014-Nov-17 00:33N 46°41' W 001°56'0 0.0
2014-Nov-16 23:33N 46°41' W 001°56'0 0.0
2014-Nov-16 22:33N 46°41' W 001°56'0 0.0
2014-Nov-16 21:33N 46°41' W 001°56'0 0.0
2014-Nov-16 20:33N 46°41' W 001°56'0 0.0
2014-Nov-16 19:33N 46°41' W 001°56'0 0.0
2014-Nov-16 18:33N 46°41' W 001°56'0 0.0
2014-Nov-16 17:33N 46°41' W 001°56'0 0.0
2014-Nov-16 16:33N 46°41' W 001°56'0 0.0
2014-Nov-16 15:33N 46°41' W 001°56'0 0.0
2014-Nov-16 14:33N 46°41' W 001°56'0 0.0
2014-Nov-16 13:33N 46°41' W 001°56'0 0.0
2014-Nov-16 12:33N 46°41' W 001°56'0 0.0
2014-Nov-16 11:33N 46°41' W 001°56'0 0.0
2014-Nov-16 10:33N 46°41' W 001°56'0 0.0
2014-Nov-16 09:33N 46°41' W 001°56'0 0.0
2014-Nov-16 00:33N 46°41' W 001°56'0 0.0
2014-Nov-15 23:33N 46°41' W 001°56'0 0.0
2014-Nov-15 22:33N 46°41' W 001°56'5 4.7
2014-Nov-15 21:33N 46°41' W 002°03'9 9.3
2014-Nov-15 20:33N 46°44' W 002°16'  
Track history (hours):
 
Tides and Currents Weather Stations Pressure Air Temp Water Temp Dewpoint Dewpoint Depression Visibility Wind Speed Wind Dir Waves Ship Positions

F/V Argentario

Last reported at 2014-Nov-19 16:33 UTC. Time now 2014-Nov-23 21:22 UTC.
Position N 46°30' W 001°47'.

Length 22 m; draft 3.4 m.

Type: Fishing. MMSI: 228975000.

Date/timePositionNaut miles runAvg speedWind from/ knotsBaromVisibWave heightAir tempDewpointWater temp
2014-Nov-19 16:33N 46°30' W 001°47'0 0.0
2014-Nov-19 15:33N 46°30' W 001°47'0 0.0
2014-Nov-19 14:33N 46°30' W 001°47'0 0.1
2014-Nov-19 13:33N 46°30' W 001°47'0 0.0
2014-Nov-19 12:33N 46°30' W 001°47'0 0.1
2014-Nov-19 11:33N 46°30' W 001°48'3 0.4
2014-Nov-19 03:31N 46°28' W 001°51'6 5.8
2014-Nov-19 02:33N 46°33' W 001°54'7 7.0
2014-Nov-19 01:33N 46°40' W 001°57'1 0.9
2014-Nov-19 00:33N 46°41' W 001°56'0 0.0
2014-Nov-18 23:33N 46°41' W 001°56'0 0.0
2014-Nov-18 22:33N 46°41' W 001°56'0 0.0
2014-Nov-18 21:33N 46°41' W 001°56'0 0.0
2014-Nov-18 20:33N 46°41' W 001°56'0 0.0
2014-Nov-18 19:33N 46°41' W 001°56'0 0.0
2014-Nov-18 18:33N 46°41' W 001°56'0 0.0
2014-Nov-18 17:33N 46°41' W 001°56'0 0.0
2014-Nov-18 16:33N 46°41' W 001°56'0 0.0
2014-Nov-18 15:33N 46°41' W 001°56'0 0.0
2014-Nov-18 14:33N 46°41' W 001°56'0 0.0
2014-Nov-18 13:33N 46°41' W 001°56'0 0.0
2014-Nov-18 12:33N 46°41' W 001°56'0 0.0
2014-Nov-18 11:33N 46°41' W 001°56'0 0.0
2014-Nov-18 10:33N 46°41' W 001°56'0 0.0
2014-Nov-18 09:33N 46°41' W 001°56'0 0.0
2014-Nov-18 08:33N 46°41' W 001°56'0 0.0
2014-Nov-18 07:33N 46°41' W 001°56'0 0.0
2014-Nov-18 06:33N 46°41' W 001°56'0 0.0
2014-Nov-18 05:33N 46°41' W 001°56'0 0.0
2014-Nov-18 04:33N 46°41' W 001°56'0 0.0
2014-Nov-18 03:33N 46°41' W 001°56'0 0.0
2014-Nov-18 02:33N 46°41' W 001°56'0 0.0
2014-Nov-18 01:33N 46°41' W 001°56'0 0.0
2014-Nov-18 00:33N 46°41' W 001°56'0 0.0
2014-Nov-17 23:33N 46°41' W 001°56'0 0.0
2014-Nov-17 22:33N 46°41' W 001°56'0 0.0
2014-Nov-17 21:33N 46°41' W 001°56'0 0.0
2014-Nov-17 20:33N 46°41' W 001°56'0 0.0
2014-Nov-17 19:33N 46°41' W 001°56'0 0.0
2014-Nov-17 18:33N 46°41' W 001°56'0 0.0
2014-Nov-17 17:33N 46°41' W 001°56'0 0.0
2014-Nov-17 16:33N 46°41' W 001°56'0 0.0
2014-Nov-17 15:33N 46°41' W 001°56'0 0.0
2014-Nov-17 14:33N 46°41' W 001°56'0 0.0
2014-Nov-17 13:33N 46°41' W 001°56'0 0.0
2014-Nov-17 12:33N 46°41' W 001°56'0 0.0
2014-Nov-17 11:33N 46°41' W 001°56'0 0.0
2014-Nov-17 10:33N 46°41' W 001°56'0 0.0
2014-Nov-17 09:33N 46°41' W 001°56'0 0.0
2014-Nov-17 08:33N 46°41' W 001°56'0 0.0
2014-Nov-17 07:33N 46°41' W 001°56'0 0.0
2014-Nov-17 06:33N 46°41' W 001°56'0 0.0
2014-Nov-17 05:33N 46°41' W 001°56'0 0.0
2014-Nov-17 04:33N 46°41' W 001°56'0 0.0
2014-Nov-17 03:33N 46°41' W 001°56'0 0.0
2014-Nov-17 02:33N 46°41' W 001°56'0 0.0
2014-Nov-17 01:33N 46°41' W 001°56'0 0.0
2014-Nov-17 00:33N 46°41' W 001°56'0 0.0
2014-Nov-16 23:33N 46°41' W 001°56'0 0.0
2014-Nov-16 22:33N 46°41' W 001°56'0 0.0
2014-Nov-16 21:33N 46°41' W 001°56'0 0.0
2014-Nov-16 20:33N 46°41' W 001°56'0 0.0
2014-Nov-16 19:33N 46°41' W 001°56'0 0.0
2014-Nov-16 18:33N 46°41' W 001°56'0 0.0
2014-Nov-16 17:33N 46°41' W 001°56'0 0.0
2014-Nov-16 16:33N 46°41' W 001°56'0 0.0
2014-Nov-16 15:33N 46°41' W 001°56'0 0.0
2014-Nov-16 14:33N 46°41' W 001°56'0 0.0
2014-Nov-16 13:33N 46°41' W 001°56'0 0.0
2014-Nov-16 12:33N 46°41' W 001°56'0 0.0
2014-Nov-16 11:33N 46°41' W 001°56'0 0.0
2014-Nov-16 10:33N 46°41' W 001°56'0 0.0
2014-Nov-16 09:33N 46°41' W 001°56'0 0.0
2014-Nov-16 00:33N 46°41' W 001°56'0 0.0
2014-Nov-15 23:33N 46°41' W 001°56'0 0.0
2014-Nov-15 22:33N 46°41' W 001°56'5 4.7
2014-Nov-15 21:33N 46°41' W 002°03'9 9.3
2014-Nov-15 20:33N 46°44' W 002°16'  

Dump ship's entire track history